createdAt,value
2018-09-04T00:00:57.523Z,20.00
2018-09-04T00:03:24.975Z,20.90
2018-09-04T00:05:52.456Z,20.20
2018-09-04T00:08:19.872Z,21.40
2018-09-04T00:10:47.363Z,20.17
2018-09-04T00:13:14.812Z,19.83
2018-09-04T00:15:42.288Z,20.93
2018-09-04T00:18:09.692Z,20.80
2018-09-04T00:20:37.120Z,20.90
2018-09-04T00:23:04.556Z,21.10
2018-09-04T00:25:32.042Z,21.47
2018-09-04T00:27:59.461Z,20.30
2018-09-04T00:30:26.911Z,20.50
2018-09-04T00:32:54.384Z,21.43
2018-09-04T00:35:21.846Z,20.97
2018-09-04T00:37:49.304Z,19.97
2018-09-04T00:40:16.737Z,21.90
2018-09-04T00:42:44.187Z,21.20
2018-09-04T00:45:11.636Z,23.17
2018-09-04T00:47:39.083Z,23.30
2018-09-04T00:50:06.759Z,21.80
2018-09-04T00:52:34.228Z,23.40
2018-09-04T00:55:01.756Z,24.13
2018-09-04T00:57:29.448Z,21.90
2018-09-04T00:59:56.888Z,23.60
2018-09-04T01:02:24.360Z,24.03
2018-09-04T01:04:51.812Z,25.57
2018-09-04T01:07:19.348Z,22.60
2018-09-04T01:09:46.840Z,23.73
2018-09-04T01:12:14.352Z,23.57
2018-09-04T01:14:41.932Z,23.60
2018-09-04T01:17:09.379Z,23.37
2018-09-04T01:19:36.820Z,23.03
2018-09-04T01:22:04.721Z,21.60
2018-09-04T01:24:32.252Z,21.13
2018-09-04T01:26:59.744Z,23.50
2018-09-04T01:29:27.168Z,22.67
2018-09-04T01:31:54.592Z,23.53
2018-09-04T01:34:21.976Z,23.70
2018-09-04T01:36:49.405Z,24.70
2018-09-04T01:39:17.097Z,24.43
2018-09-04T01:41:44.516Z,23.50
2018-09-04T01:44:11.920Z,24.10
2018-09-04T01:46:39.667Z,23.97
2018-09-04T01:49:07.076Z,25.73
2018-09-04T01:51:34.560Z,25.30
2018-09-04T01:54:02.007Z,26.93
2018-09-04T01:56:29.435Z,26.83
2018-09-04T01:58:56.862Z,26.70
2018-09-04T02:01:24.385Z,26.37
2018-09-04T02:03:51.856Z,28.60
2018-09-04T02:06:19.520Z,29.23
2018-09-04T02:08:47.000Z,27.43
2018-09-04T02:11:14.428Z,26.10
2018-09-04T02:13:41.903Z,27.33
2018-09-04T02:16:09.340Z,29.67
2018-09-04T02:18:36.775Z,28.10
2018-09-04T02:21:04.783Z,30.57
2018-09-04T02:23:32.229Z,29.13
2018-09-04T02:25:59.678Z,27.23
2018-09-04T02:28:27.137Z,29.10
2018-09-04T02:30:54.552Z,29.50
2018-09-04T02:33:22.069Z,30.60
2018-09-04T02:35:49.512Z,28.90
2018-09-04T02:38:17.016Z,27.30
2018-09-04T02:40:44.456Z,31.83
2018-09-04T02:43:11.891Z,29.77
2018-09-04T02:45:39.332Z,31.73
2018-09-04T02:48:06.812Z,31.13
2018-09-04T02:50:34.236Z,28.60
2018-09-04T02:53:01.711Z,29.20
2018-09-04T02:55:29.172Z,29.10
2018-09-04T02:57:56.622Z,30.17
2018-09-04T03:00:24.028Z,28.07
2018-09-04T03:02:52.269Z,28.70
2018-09-04T03:05:19.710Z,29.63
2018-09-04T03:07:47.280Z,27.87
2018-09-04T03:10:14.715Z,29.43
2018-09-04T03:12:42.136Z,28.53
2018-09-04T03:15:09.552Z,29.77
2018-09-04T03:17:36.963Z,28.77
2018-09-04T03:20:04.429Z,26.23
2018-09-04T03:22:31.990Z,27.70
2018-09-04T03:24:59.691Z,27.27
2018-09-04T03:27:27.207Z,27.73
2018-09-04T03:29:54.659Z,26.87
2018-09-04T03:32:22.148Z,25.90
2018-09-04T03:34:49.711Z,26.90
2018-09-04T03:37:17.149Z,29.50
2018-09-04T03:39:44.629Z,27.57
2018-09-04T03:42:12.057Z,27.63
2018-09-04T03:44:39.685Z,27.07
2018-09-04T03:47:07.272Z,27.27
2018-09-04T03:49:35.120Z,26.70
2018-09-04T03:52:02.705Z,28.17
2018-09-04T03:54:30.903Z,27.20
2018-09-04T03:56:58.347Z,28.03
2018-09-04T03:59:25.878Z,26.57
2018-09-04T04:01:53.420Z,26.93
2018-09-04T04:04:20.840Z,26.97
2018-09-04T04:06:48.392Z,25.80
2018-09-04T04:09:15.859Z,23.83
2018-09-04T04:11:43.293Z,24.80
2018-09-04T04:14:10.745Z,25.23
2018-09-04T04:16:38.219Z,25.57
2018-09-04T04:19:05.658Z,26.60
2018-09-04T04:21:33.176Z,27.47
2018-09-04T04:24:00.724Z,26.60
2018-09-04T04:26:28.164Z,25.83
2018-09-04T04:28:55.608Z,26.90
2018-09-04T04:31:23.003Z,26.97
2018-09-04T04:33:50.448Z,25.70
2018-09-04T04:36:17.916Z,25.93
2018-09-04T04:38:45.332Z,25.67
2018-09-04T04:41:12.788Z,26.90
2018-09-04T04:43:40.202Z,26.40
2018-09-04T04:46:07.611Z,24.40
2018-09-04T04:48:35.032Z,25.13
2018-09-04T04:51:02.572Z,24.07
2018-09-04T04:53:30.048Z,26.97
2018-09-04T04:55:57.483Z,25.37
2018-09-04T04:58:24.898Z,25.90
2018-09-04T05:00:52.303Z,24.90
2018-09-04T05:03:19.735Z,24.60
2018-09-04T05:05:47.224Z,25.33
2018-09-04T05:08:14.631Z,27.57
2018-09-04T05:10:42.092Z,25.60
2018-09-04T05:13:09.664Z,26.20
2018-09-04T05:15:37.100Z,25.97
2018-09-04T05:18:04.681Z,26.27
2018-09-04T05:20:32.197Z,23.97
2018-09-04T05:22:59.724Z,26.17
2018-09-04T05:25:27.297Z,27.20
2018-09-04T05:27:54.748Z,27.57
2018-09-04T05:30:22.266Z,27.93
2018-09-04T05:32:55.585Z,27.97
2018-09-04T05:35:23.044Z,27.73
2018-09-04T05:37:50.492Z,26.20
2018-09-04T05:40:17.989Z,26.80
2018-09-04T05:42:49.328Z,27.10
2018-09-04T05:45:17.093Z,29.20
2018-09-04T05:47:44.640Z,27.10
2018-09-04T05:50:12.206Z,29.23
2018-09-04T05:52:40.232Z,30.20
2018-09-04T05:55:07.829Z,27.10
2018-09-04T05:57:35.360Z,27.70
2018-09-04T06:00:06.097Z,28.83
2018-09-04T06:02:33.644Z,29.83
2018-09-04T06:05:01.228Z,29.63
2018-09-04T06:07:28.740Z,29.20
2018-09-04T06:09:56.284Z,28.27
2018-09-04T06:12:23.760Z,27.13
2018-09-04T06:14:51.273Z,30.63
2018-09-04T06:17:18.812Z,33.80
2018-09-04T06:19:46.324Z,34.67
2018-09-04T06:22:13.857Z,34.60
2018-09-04T06:24:41.468Z,36.43
2018-09-04T06:27:08.925Z,38.70
2018-09-04T06:29:36.411Z,39.00
2018-09-04T06:32:03.803Z,40.60
2018-09-04T06:34:31.315Z,40.90
2018-09-04T06:36:58.992Z,43.90
2018-09-04T06:39:26.444Z,40.67
2018-09-04T06:41:53.924Z,45.53
2018-09-04T06:44:21.384Z,43.50
2018-09-04T06:46:48.942Z,48.80
2018-09-04T06:49:16.420Z,46.40
2018-09-04T06:51:43.899Z,43.23
2018-09-04T06:54:11.649Z,45.03
2018-09-04T06:56:39.089Z,45.83
2018-09-04T06:59:06.565Z,44.03
2018-09-04T07:01:34.122Z,46.50
2018-09-04T07:04:01.873Z,48.37
2018-09-04T07:06:29.365Z,48.33
2018-09-04T07:08:56.937Z,50.10
2018-09-04T07:11:24.384Z,47.23
2018-09-04T07:13:51.816Z,48.57
2018-09-04T07:16:19.237Z,46.97
2018-09-04T07:18:46.793Z,47.63
2018-09-04T07:21:14.217Z,49.40
2018-09-04T07:23:41.639Z,50.47
2018-09-04T07:26:13.685Z,51.10
2018-09-04T07:28:41.182Z,50.57
2018-09-04T07:31:08.660Z,50.50
2018-09-04T07:33:36.221Z,51.00
2018-09-04T07:36:03.769Z,50.40
2018-09-04T07:38:31.329Z,51.73
2018-09-04T07:40:58.804Z,53.67
2018-09-04T07:43:26.241Z,54.03
2018-09-04T07:45:53.683Z,52.17
2018-09-04T07:48:21.104Z,52.90
2018-09-04T07:50:48.583Z,53.80
2018-09-04T07:53:19.504Z,52.50
2018-09-04T07:55:47.071Z,55.53
2018-09-04T07:58:14.554Z,50.27
2018-09-04T08:00:42.065Z,54.13
2018-09-04T08:03:09.479Z,53.60
2018-09-04T08:05:36.891Z,52.20
2018-09-04T08:08:04.360Z,52.80
2018-09-04T08:10:34.227Z,54.17
2018-09-04T08:13:03.373Z,51.87
2018-09-04T08:15:30.884Z,51.07
2018-09-04T08:17:58.491Z,51.73
2018-09-04T08:20:26.141Z,52.00
2018-09-04T08:22:54.354Z,55.40
2018-09-04T08:25:22.329Z,50.03
2018-09-04T08:27:49.772Z,52.07
2018-09-04T08:30:17.222Z,53.47
2018-09-04T08:32:44.684Z,51.83
2018-09-04T08:35:12.084Z,49.67
2018-09-04T08:37:39.536Z,51.97
2018-09-04T08:40:07.065Z,51.20
2018-09-04T08:42:34.560Z,50.83
2018-09-04T08:45:02.122Z,51.27
2018-09-04T08:47:30.069Z,50.40
2018-09-04T08:49:57.542Z,47.77
2018-09-04T08:52:24.995Z,52.00
2018-09-04T08:54:52.438Z,50.67
2018-09-04T08:57:19.895Z,49.33
2018-09-04T08:59:47.454Z,50.47
2018-09-04T09:02:14.887Z,50.07
2018-09-04T09:04:42.313Z,49.97
2018-09-04T09:07:09.734Z,48.67
2018-09-04T09:09:37.133Z,49.80
2018-09-04T09:12:04.625Z,49.93
2018-09-04T09:14:32.145Z,48.73
2018-09-04T09:16:59.622Z,49.23
2018-09-04T09:19:27.176Z,49.53
2018-09-04T09:21:54.736Z,49.20
2018-09-04T09:24:22.146Z,50.13
2018-09-04T09:26:49.680Z,48.77
2018-09-04T09:29:17.136Z,47.37
2018-09-04T09:31:44.544Z,48.07
2018-09-04T09:34:12.018Z,49.47
2018-09-04T09:36:39.479Z,51.67
2018-09-04T09:39:08.100Z,49.80
2018-09-04T09:41:36.732Z,47.97
2018-09-04T09:44:04.165Z,49.13
2018-09-04T09:46:31.639Z,48.10
2018-09-04T09:48:59.061Z,48.27
2018-09-04T09:51:26.541Z,46.10
2018-09-04T09:53:53.960Z,46.10
2018-09-04T09:56:21.408Z,46.83
2018-09-04T09:58:48.797Z,45.90
2018-09-04T10:01:23.928Z,45.90
2018-09-04T10:03:59.579Z,45.60
2018-09-04T10:06:27.409Z,44.40
2018-09-04T10:08:54.944Z,45.23
2018-09-04T10:11:22.532Z,42.17
2018-09-04T10:13:50.176Z,41.60
2018-09-04T10:16:17.757Z,42.77
2018-09-04T10:18:45.250Z,42.47
2018-09-04T10:21:12.846Z,42.47
2018-09-04T10:23:40.224Z,38.80
2018-09-04T10:26:07.712Z,41.80
2018-09-04T10:28:35.160Z,38.77
2018-09-04T10:31:02.639Z,39.17
2018-09-04T10:33:30.115Z,38.03
2018-09-04T10:35:57.735Z,37.10
2018-09-04T10:38:26.753Z,38.30
2018-09-04T10:41:00.385Z,37.97
2018-09-04T10:43:28.994Z,37.23
2018-09-04T10:45:59.783Z,33.23
2018-09-04T10:48:27.689Z,36.03
2018-09-04T10:50:55.145Z,34.27
2018-09-04T10:53:22.569Z,30.17
2018-09-04T10:55:50.045Z,29.10
2018-09-04T10:58:17.461Z,31.60
2018-09-04T11:00:44.952Z,38.10
2018-09-04T11:03:12.516Z,36.50
2018-09-04T11:05:40.165Z,35.73
2018-09-04T11:08:07.698Z,34.60
2018-09-04T11:10:35.166Z,38.10
2018-09-04T11:13:02.664Z,35.90
2018-09-04T11:15:30.166Z,34.80
2018-09-04T11:17:57.656Z,35.70
2018-09-04T11:20:25.224Z,37.00
2018-09-04T11:22:52.789Z,38.10
2018-09-04T11:25:20.481Z,33.20
2018-09-04T11:27:48.020Z,34.33
2018-09-04T11:30:15.466Z,33.50
2018-09-04T11:32:43.087Z,31.50
2018-09-04T11:35:11.048Z,32.40
2018-09-04T11:37:38.557Z,28.97
2018-09-04T11:40:06.961Z,31.00
2018-09-04T11:42:35.056Z,30.10
2018-09-04T11:45:02.525Z,29.07
2018-09-04T11:47:29.924Z,27.77
2018-09-04T11:49:57.176Z,28.17
2018-09-04T11:52:24.506Z,30.70
2018-09-04T11:54:51.796Z,27.10
2018-09-04T11:57:19.144Z,31.03
2018-09-04T11:59:46.504Z,30.57
2018-09-04T12:02:18.274Z,28.00
2018-09-04T12:04:45.465Z,29.20
2018-09-04T12:07:12.707Z,30.27
2018-09-04T12:09:40.690Z,27.07
2018-09-04T12:12:07.936Z,29.67
2018-09-04T12:14:36.646Z,27.47
2018-09-04T12:17:05.832Z,24.77
2018-09-04T12:19:41.276Z,26.03
2018-09-04T12:22:08.737Z,26.80
2018-09-04T12:24:36.008Z,26.40
2018-09-04T12:27:03.287Z,25.83
2018-09-04T12:29:30.577Z,25.23
2018-09-04T12:31:59.625Z,24.80
2018-09-04T12:34:26.889Z,27.17
2018-09-04T12:36:54.188Z,25.63
2018-09-04T12:39:21.413Z,22.57
2018-09-04T12:41:49.403Z,22.20
2018-09-04T12:44:16.814Z,22.50
2018-09-04T12:46:44.164Z,20.73
2018-09-04T12:49:11.465Z,21.07
2018-09-04T12:51:38.692Z,19.00
2018-09-04T12:54:05.971Z,18.13
2018-09-04T12:56:33.324Z,19.97
2018-09-04T12:59:00.576Z,19.80
2018-09-04T13:01:27.824Z,15.93
2018-09-04T13:03:55.613Z,17.87
2018-09-04T13:06:22.846Z,15.77
2018-09-04T13:08:50.099Z,18.20
2018-09-04T13:11:17.345Z,17.40
2018-09-04T13:13:44.626Z,16.00
2018-09-04T13:16:11.920Z,16.30
2018-09-04T13:18:39.108Z,15.40
2018-09-04T13:21:06.346Z,17.20
2018-09-04T13:23:34.732Z,18.50
2018-09-04T13:26:02.456Z,17.93
2018-09-04T13:28:30.324Z,17.33
2018-09-04T13:30:57.628Z,16.93
2018-09-04T13:33:24.961Z,17.23
2018-09-04T13:35:52.321Z,18.67
2018-09-04T13:38:20.022Z,18.00
2018-09-04T13:40:47.497Z,19.53
2018-09-04T13:43:14.809Z,19.07
2018-09-04T13:45:42.534Z,21.97
2018-09-04T13:48:09.789Z,23.07
2018-09-04T13:50:37.044Z,21.70
2018-09-04T13:53:04.424Z,21.60
2018-09-04T13:55:31.690Z,22.67
2018-09-04T13:57:58.924Z,21.57
2018-09-04T14:00:26.429Z,23.53
2018-09-04T14:02:53.689Z,25.60
2018-09-04T14:05:21.007Z,26.00
2018-09-04T14:07:48.438Z,27.17
2018-09-04T14:10:15.724Z,31.27
2018-09-04T14:12:42.952Z,29.43
2018-09-04T14:15:10.507Z,24.53
2018-09-04T14:17:37.742Z,21.37
2018-09-04T14:20:05.937Z,19.90
2018-09-04T14:22:33.285Z,18.73
2018-09-04T14:25:00.450Z,18.00
2018-09-04T14:27:27.688Z,16.90
2018-09-04T14:30:15.538Z,15.10
2018-09-04T14:32:22.121Z,15.10
2018-09-04T14:34:49.707Z,14.60
2018-09-04T14:37:17.314Z,14.30
2018-09-04T14:39:44.655Z,15.37
2018-09-04T14:42:12.185Z,15.90
2018-09-04T14:44:39.560Z,16.13
2018-09-04T14:47:07.015Z,15.07
2018-09-04T14:49:34.505Z,16.20
2018-09-04T14:52:02.092Z,15.07
2018-09-04T14:54:29.708Z,14.30
2018-09-04T14:56:57.200Z,14.40
2018-09-04T14:59:24.640Z,14.93
2018-09-04T15:01:52.084Z,13.87
2018-09-04T15:04:19.569Z,15.40
2018-09-04T15:06:47.199Z,16.33
2018-09-04T15:09:14.644Z,15.87
2018-09-04T15:11:42.084Z,15.60
2018-09-04T15:14:09.521Z,15.70
2018-09-04T15:16:37.006Z,17.10
2018-09-04T15:19:04.569Z,15.43
2018-09-04T15:21:32.043Z,17.20
2018-09-04T15:23:59.473Z,15.77
2018-09-04T15:26:26.948Z,16.60
2018-09-04T15:28:54.375Z,15.70
2018-09-04T15:31:22.866Z,16.10
2018-09-04T15:33:50.350Z,14.13
2018-09-04T15:36:17.822Z,14.87
2018-09-04T15:38:45.269Z,14.57
2018-09-04T15:41:12.704Z,15.30
2018-09-04T15:43:40.145Z,15.57
2018-09-04T15:46:07.712Z,16.27
2018-09-04T15:48:35.128Z,18.43
2018-09-04T15:51:02.593Z,17.30
2018-09-04T15:53:30.036Z,17.50
2018-09-04T15:55:57.615Z,16.90
2018-09-04T15:58:25.044Z,18.10
2018-09-04T16:00:52.464Z,16.00
2018-09-04T16:03:19.964Z,16.03
2018-09-04T16:05:47.631Z,15.10
2018-09-04T16:08:15.116Z,15.47
2018-09-04T16:10:42.584Z,16.63
2018-09-04T16:13:10.035Z,16.23
2018-09-04T16:15:37.505Z,13.60
2018-09-04T16:18:04.945Z,13.70
2018-09-04T16:20:32.442Z,12.70
2018-09-04T16:22:59.880Z,12.57
2018-09-04T16:25:27.368Z,12.97
2018-09-04T16:27:54.819Z,12.50
2018-09-04T16:30:22.277Z,12.27
2018-09-04T16:32:49.760Z,11.80
2018-09-04T16:35:17.243Z,12.50
2018-09-04T16:37:44.753Z,12.97
2018-09-04T16:40:12.961Z,13.07
2018-09-04T16:42:40.408Z,14.57
2018-09-04T16:45:07.961Z,13.67
2018-09-04T16:47:35.501Z,13.10
2018-09-04T16:50:03.033Z,13.53
2018-09-04T16:52:30.629Z,12.77
2018-09-04T16:54:58.160Z,13.37
2018-09-04T16:57:25.748Z,12.83
2018-09-04T16:59:53.156Z,13.37
2018-09-04T17:02:20.616Z,14.60
2018-09-04T17:04:48.218Z,13.40
2018-09-04T17:07:16.076Z,13.60
2018-09-04T17:09:43.602Z,13.70
2018-09-04T17:12:12.171Z,14.37
2018-09-04T17:14:39.709Z,14.70
2018-09-04T17:17:07.192Z,14.90
2018-09-04T17:19:34.824Z,13.27
2018-09-04T17:22:02.338Z,14.83
2018-09-04T17:24:29.939Z,13.30
2018-09-04T17:26:57.399Z,14.30
2018-09-04T17:29:24.872Z,14.17
2018-09-04T17:31:52.349Z,15.20
2018-09-04T17:34:19.883Z,14.40
2018-09-04T17:36:48.257Z,14.83
2018-09-04T17:39:15.814Z,14.03
2018-09-04T17:41:43.289Z,14.87
2018-09-04T17:44:10.748Z,13.13
2018-09-04T17:46:38.177Z,13.10
2018-09-04T17:49:05.643Z,14.50
2018-09-04T17:51:33.802Z,14.60
2018-09-04T17:54:01.304Z,14.07
2018-09-04T17:56:28.848Z,14.50
2018-09-04T17:58:56.387Z,14.30
2018-09-04T18:01:23.917Z,15.33
2018-09-04T18:03:51.582Z,14.83
2018-09-04T18:06:19.192Z,14.50
2018-09-04T18:08:50.958Z,15.20
2018-09-04T18:11:20.614Z,16.17
2018-09-04T18:13:49.329Z,15.33
2018-09-04T18:16:26.578Z,15.30
2018-09-04T18:18:54.037Z,16.00
2018-09-04T18:21:21.632Z,15.93
2018-09-04T18:23:49.258Z,15.77
2018-09-04T18:26:16.782Z,15.50
2018-09-04T18:28:44.319Z,15.70
2018-09-04T18:31:11.798Z,16.50
2018-09-04T18:33:39.256Z,16.60
2018-09-04T18:36:10.447Z,16.20
2018-09-04T18:38:37.904Z,16.43
2018-09-04T18:41:05.884Z,16.17
2018-09-04T18:43:36.989Z,16.33
2018-09-04T18:46:04.532Z,16.80
2018-09-04T18:48:31.971Z,16.27
2018-09-04T18:50:59.451Z,17.20
2018-09-04T18:53:26.888Z,16.50
2018-09-04T18:55:54.375Z,16.67
2018-09-04T18:58:21.851Z,16.20
2018-09-04T19:00:49.447Z,16.47
2018-09-04T19:06:09.856Z,17.23
2018-09-04T19:08:37.364Z,17.50
2018-09-04T19:11:04.947Z,18.63
2018-09-04T19:13:34.455Z,17.20
2018-09-04T19:16:02.028Z,16.77
2018-09-04T19:18:31.584Z,18.70
2018-09-04T19:20:59.049Z,16.93
2018-09-04T19:23:26.473Z,18.47
2018-09-04T19:25:55.020Z,17.70
2018-09-04T19:28:22.540Z,17.30
2018-09-04T19:30:50.042Z,17.50
2018-09-04T19:33:17.593Z,17.60
2018-09-04T19:35:45.057Z,18.30
2018-09-04T19:38:12.516Z,17.50
2018-09-04T19:40:40.058Z,18.50
2018-09-04T19:43:07.568Z,18.67
2018-09-04T19:45:35.089Z,18.87
2018-09-04T19:49:18.315Z,18.37
2018-09-04T19:51:45.830Z,18.20
2018-09-04T19:54:13.403Z,17.10
2018-09-04T19:56:40.899Z,17.93
2018-09-04T19:59:08.397Z,18.60
2018-09-04T20:01:35.893Z,17.83
2018-09-04T20:04:03.529Z,19.10
2018-09-04T20:06:31.368Z,20.13
2018-09-04T20:08:59.077Z,18.83
2018-09-04T20:11:26.994Z,20.30
2018-09-04T20:13:54.535Z,17.90
2018-09-04T20:16:22.109Z,18.20
2018-09-04T20:18:49.726Z,18.90
2018-09-04T20:21:17.408Z,18.80
2018-09-04T20:23:45.293Z,19.07
2018-09-04T20:26:12.817Z,18.80
2018-09-04T20:28:40.452Z,19.30
2018-09-04T20:31:07.958Z,18.40
2018-09-04T20:33:35.573Z,19.00
2018-09-04T20:36:03.285Z,19.30
2018-09-04T20:38:32.250Z,18.60
2018-09-04T20:41:02.294Z,19.20
2018-09-04T20:43:30.454Z,19.17
2018-09-04T20:45:58.010Z,19.77
2018-09-04T20:48:25.464Z,19.70
2018-09-04T20:50:53.026Z,19.87
2018-09-04T20:53:20.690Z,19.37
2018-09-04T20:55:48.608Z,20.73
2018-09-04T20:58:27.768Z,18.47
2018-09-04T21:01:06.723Z,19.30
2018-09-04T21:03:45.707Z,18.80
2018-09-04T21:06:24.609Z,19.23
2018-09-04T21:09:00.362Z,19.23
2018-09-04T21:11:27.763Z,19.80
2018-09-04T21:13:55.327Z,20.80
2018-09-04T21:16:22.727Z,19.77
2018-09-04T21:18:50.331Z,20.50
2018-09-04T21:21:17.663Z,20.07
2018-09-04T21:23:45.050Z,20.03
2018-09-04T21:26:12.397Z,20.33
2018-09-04T21:28:39.665Z,19.50
2018-09-04T21:31:07.030Z,19.93
2018-09-04T21:33:34.320Z,20.10
2018-09-04T21:36:01.816Z,19.73
2018-09-04T21:38:29.228Z,19.83
2018-09-04T21:40:56.496Z,18.70
2018-09-04T21:43:23.791Z,20.60
2018-09-04T21:45:52.173Z,19.03
2018-09-04T21:48:19.450Z,19.07
2018-09-04T21:50:46.832Z,20.03
2018-09-04T21:53:14.075Z,20.57
2018-09-04T21:55:41.346Z,19.77
2018-09-04T21:58:09.125Z,19.93
2018-09-04T22:00:36.407Z,19.90
2018-09-04T22:03:03.813Z,19.60
2018-09-04T22:05:31.259Z,18.57
2018-09-04T22:08:00.092Z,19.73
2018-09-04T22:10:27.449Z,20.50
2018-09-04T22:12:55.259Z,19.80
2018-09-04T22:15:23.396Z,20.40
2018-09-04T22:17:50.893Z,19.87
2018-09-04T22:20:18.157Z,20.10
2018-09-04T22:22:45.429Z,19.67
2018-09-04T22:25:12.701Z,19.00
2018-09-04T22:27:40.192Z,19.47
2018-09-04T22:30:07.471Z,19.90
2018-09-04T22:32:35.087Z,18.47
2018-09-04T22:35:02.696Z,18.13
2018-09-04T22:37:30.005Z,18.13
2018-09-04T22:39:57.251Z,19.03
2018-09-04T22:42:24.652Z,19.40
2018-09-04T22:44:51.937Z,18.37
2018-09-04T22:47:19.286Z,18.70
2018-09-04T22:49:52.139Z,19.70
2018-09-04T22:52:24.036Z,18.73
2018-09-04T22:54:53.448Z,19.73
2018-09-04T22:57:20.754Z,19.77
2018-09-04T22:59:48.055Z,20.20
2018-09-04T23:02:15.351Z,18.50
2018-09-04T23:04:42.756Z,18.77
2018-09-04T23:07:10.091Z,18.97
2018-09-04T23:09:37.556Z,18.43
2018-09-04T23:12:05.434Z,18.73
2018-09-04T23:14:32.773Z,19.60
2018-09-04T23:17:00.241Z,19.00
2018-09-04T23:19:27.525Z,17.60
2018-09-04T23:21:54.805Z,18.57
2018-09-04T23:24:22.053Z,19.57
2018-09-04T23:26:49.497Z,18.30
2018-09-04T23:29:16.995Z,19.33
2018-09-04T23:31:44.378Z,18.63
2018-09-04T23:34:11.851Z,19.37
2018-09-04T23:36:39.138Z,19.80
2018-09-04T23:39:06.394Z,18.70
2018-09-04T23:41:33.678Z,18.20
2018-09-04T23:44:00.974Z,18.37
2018-09-04T23:46:30.338Z,19.37
2018-09-04T23:48:57.589Z,18.23
2018-09-04T23:51:24.923Z,18.17
2018-09-04T23:53:52.149Z,19.40
2018-09-04T23:56:19.396Z,18.57
2018-09-04T23:58:46.709Z,18.43
